Terminal Aerodrome Forecast
Issued by NWS

Home | Current Version | Previous Version | Text Only | Print | Product List | Glossary On
Versions: 1 2 3 4 5 6 7 8 9 10 11 12
000
FTUS46 KHNX 070536
TAFFAT
TAF
KFAT 070536Z 0706/0806 30009KT P6SM FEW120 SCT250
     FM071500 31006KT P6SM SCT060 BKN120
     FM071900 31010KT P6SM VCSH SCT040 BKN060 PROB30 0721/0801 3SM
      TSRAGS BKN040CB=

USA.gov is the U.S. government's official web portal to all federal, state and local government web resources and services.